Main page
METAR-TAF:

METAR-TAF

Airports :

Hrodna Airport

Grodno, Belarus

latitude: 53-36-06N, longitude: 024-03-18E, elevation: 135 m

Current weather observation

The report was made 13 hours and 36 minutes ago, at 13:00 UTC
Wind 10 kt from the Northwest with gusts up to 16 kt
Temperature 14°C
Humidity 67%
Pressure 1022 hPa
Visibility 10 km or more
Broken clouds at a height of 2000 ft, Cumulonimbus.
Broken clouds at a height of 6600 ft

METAR: UMMG 251300Z 32005G08MPS 9999 BKN020CB BKN066 14/08 Q1022 R17/CLRD// NOSIG

Time: 05:36 (02:36 UTC)

Forecast

The report was made 15 hours and 27 minutes ago, at 11:09 UTC
Forecast valid from 25 at 12 UTC to 25 at 21 UTC
Wind 6 kt from the West
Visibility: 9000 m
Broken clouds at a height of 2000 ft
Temporary
from 25 at 12 UTC to 25 at 17 UTC
Wind 19 kt from variable directions
Visibility: 3000 m
Scattered clouds at a height of 1600 ft, Cumulonimbus.
thunderstorm, light rain

TAF: UMMG 251109Z 2512/2521 28003MPS 9000 BKN020 TEMPO 2512/2517 VRB10MPS 3000 -TSRA SCT016CB

Weather observations and forecasts of more than 4000 airports (METAR and TAF reports).

The available stations are represented by yellow and red dots on the map.

Hover mouse over dot to see the name of the station.

Then click to see weather observations and forecasts.

To change the map : click on the green buttons with a black cross to zoom in, on the green button with a dash to zoom out, or on the green arrows for adjacent maps.


METAR-TAF: